Time;durP1;ratioP1;P1;durP2;ratioP2;P2;SDS_P1;SDS_P2;PMS_P1;PMS_P2;Temp;Humidity;BMP_temperature;BMP_pressure;BME280_temperature;BME280_humidity;BME280_pressure;Samples;Min_cycle;Max_cycle;Signal;HPM_P1;HPM_P2
2022/05/03 00:00:23;;;;;;;16.07;14.47;;;12.70;99.90;;;;;;5094582;28;20600;-74
2022/05/03 00:03:11;;;;;;;13.60;12.25;;;12.60;99.90;;;;;;5093204;28;20973;-74
2022/05/03 00:05:43;;;;;;;13.37;12.10;;;12.70;99.90;;;;;;5092863;28;20615;-75
2022/05/03 00:08:32;;;;;;;16.30;12.17;;;12.60;99.90;;;;;;5075204;28;20596;-74
2022/05/03 00:11:29;;;;;;;13.45;12.27;;;12.60;99.90;;;;;;5078729;28;20628;-74
2022/05/03 00:13:59;;;;;;;13.68;11.80;;;12.60;99.90;;;;;;5092928;28;20640;-74
2022/05/03 00:16:26;;;;;;;15.15;13.57;;;12.50;99.90;;;;;;5094051;28;20259;-74
2022/05/03 00:18:53;;;;;;;13.83;12.67;;;12.40;99.90;;;;;;5093074;28;20199;-74
2022/05/03 00:21:21;;;;;;;14.02;12.65;;;12.40;99.90;;;;;;5092864;28;21143;-74
2022/05/03 00:23:48;;;;;;;13.83;11.33;;;12.40;99.90;;;;;;5058014;28;20667;-74
2022/05/03 00:26:15;;;;;;;12.88;11.68;;;12.40;99.90;;;;;;5092634;28;20628;-74
2022/05/03 00:28:42;;;;;;;14.90;13.40;;;12.30;99.90;;;;;;5093091;28;20214;-74
2022/05/03 00:31:10;;;;;;;13.98;12.52;;;12.20;99.90;;;;;;5092825;28;20598;-74
2022/05/03 00:33:37;;;;;;;16.10;14.50;;;12.10;99.90;;;;;;5092625;28;20256;-74
2022/05/03 00:36:03;;;;;;;15.98;14.48;;;12.00;99.90;;;;;;5092915;28;20205;-74
2022/05/03 00:38:34;;;;;;;15.80;14.27;;;12.10;99.90;;;;;;5092882;28;20206;-74
2022/05/03 00:41:03;;;;;;;14.35;13.02;;;12.20;99.90;;;;;;5092840;28;20203;-74
2022/05/03 00:43:40;;;;;;;24.10;17.17;;;12.20;99.90;;;;;;5092746;28;20223;-74
2022/05/03 00:46:30;;;;;;;22.15;18.38;;;12.20;99.90;;;;;;5092624;28;20187;-74
2022/05/03 00:49:13;;;;;;;22.67;17.05;;;12.30;99.90;;;;;;5092958;28;20190;-74
2022/05/03 00:52:00;;;;;;;19.08;15.07;;;12.30;99.90;;;;;;5091967;28;20198;-74
2022/05/03 00:54:47;;;;;;;15.07;13.57;;;12.40;99.90;;;;;;5092105;28;20199;-74
2022/05/03 00:57:33;;;;;;;12.47;11.33;;;12.50;99.90;;;;;;5092431;28;20584;-74
2022/05/03 01:00:10;;;;;;;13.37;12.07;;;12.60;99.90;;;;;;5057452;28;20629;-74
2022/05/03 01:03:18;;;;;;;14.43;12.80;;;12.60;99.90;;;;;;5092160;28;21213;-74
2022/05/03 01:05:46;;;;;;;12.53;11.40;;;12.50;99.90;;;;;;5052248;28;20669;-74
2022/05/03 01:08:30;;;;;;;12.20;11.27;;;12.40;99.90;;;;;;5092531;28;20628;-74
2022/05/03 01:11:25;;;;;;;13.37;11.80;;;12.20;99.90;;;;;;5096088;28;20580;-74
2022/05/03 01:14:18;;;;;;;13.47;12.17;;;12.10;99.90;;;;;;5096091;28;20566;-74
2022/05/03 01:17:02;;;;;;;12.63;11.20;;;11.80;99.90;;;;;;5095623;28;20609;-74
2022/05/03 01:19:34;;;;;;;13.07;11.87;;;11.80;99.90;;;;;;5095741;28;20598;-74
2022/05/03 01:22:07;;;;;;;12.90;11.80;;;11.80;99.90;;;;;;5095784;28;20552;-74
2022/05/03 01:25:07;;;;;;;12.38;11.25;;;11.80;99.90;;;;;;5095267;28;20215;-74
2022/05/03 01:27:40;;;;;;;12.23;11.18;;;11.80;99.90;;;;;;5095275;28;20580;-74
2022/05/03 01:30:10;;;;;;;13.90;12.60;;;11.80;99.90;;;;;;5095587;28;20199;-74
2022/05/03 01:32:38;;;;;;;12.90;11.75;;;11.80;99.90;;;;;;5095258;28;20602;-74
2022/05/03 01:35:06;;;;;;;14.48;13.07;;;11.80;99.90;;;;;;5095598;28;20203;-74
2022/05/03 01:38:18;;;;;;;13.70;12.40;;;11.70;99.90;;;;;;5095839;28;20203;-74
2022/05/03 01:41:10;;;;;;;13.23;12.13;;;11.50;99.90;;;;;;5095531;28;20191;-74
2022/05/03 01:44:01;;;;;;;13.50;12.30;;;11.50;99.90;;;;;;5095338;28;20227;-74
2022/05/03 01:46:34;;;;;;;14.05;12.73;;;11.50;99.90;;;;;;5095926;28;20189;-74
2022/05/03 01:52:33;;;;;;;14.80;13.30;;;11.40;99.90;;;;;;5095784;28;20180;-74
2022/05/03 01:55:18;;;;;;;13.95;12.55;;;11.30;99.90;;;;;;5094816;28;20694;-74
2022/05/03 01:58:10;;;;;;;14.23;12.43;;;11.30;99.90;;;;;;5094575;28;20209;-74
2022/05/03 02:00:37;;;;;;;20.48;12.57;;;11.30;99.90;;;;;;5095393;28;20188;-74
2022/05/03 02:03:49;;;;;;;14.52;13.23;;;11.20;99.90;;;;;;5095265;28;20260;-74
2022/05/03 02:06:25;;;;;;;12.73;11.77;;;11.30;99.90;;;;;;5094899;28;20239;-74
2022/05/03 02:09:02;;;;;;;14.70;12.90;;;11.30;99.90;;;;;;5095357;28;20185;-74
2022/05/03 02:11:56;;;;;;;23.20;20.40;;;11.20;99.90;;;;;;5094701;28;20202;-74
2022/05/03 02:14:44;;;;;;;16.65;13.70;;;11.20;99.90;;;;;;5094998;28;20191;-74
2022/05/03 02:17:26;;;;;;;15.88;14.30;;;11.10;99.90;;;;;;5094752;28;20608;-74
2022/05/03 02:20:20;;;;;;;12.93;11.80;;;11.20;99.90;;;;;;5093806;28;20203;-74
2022/05/03 02:23:12;;;;;;;15.05;13.48;;;11.10;99.90;;;;;;5094141;28;20214;-74
2022/05/03 02:26:02;;;;;;;15.52;14.02;;;11.00;99.90;;;;;;5094697;28;20588;-74
2022/05/03 02:29:06;;;;;;;14.98;13.70;;;11.00;99.90;;;;;;5083268;28;20248;-74
2022/05/03 02:31:41;;;;;;;14.73;13.48;;;11.00;99.90;;;;;;5094460;28;20203;-74
2022/05/03 02:34:25;;;;;;;14.52;13.20;;;11.10;99.90;;;;;;5094346;28;20197;-74
2022/05/03 02:37:22;;;;;;;14.57;13.38;;;11.00;99.90;;;;;;5093973;28;20676;-74
2022/05/03 02:40:00;;;;;;;15.02;13.60;;;11.00;99.90;;;;;;5094793;28;20400;-74
2022/05/03 02:42:27;;;;;;;14.82;13.45;;;10.90;99.90;;;;;;5094680;28;20343;-74
2022/05/03 02:44:56;;;;;;;26.85;14.15;;;10.80;99.90;;;;;;5094607;28;20225;-74
2022/05/03 02:47:41;;;;;;;13.95;12.75;;;10.70;99.90;;;;;;5076036;28;20201;-74
2022/05/03 02:50:16;;;;;;;14.93;13.52;;;10.70;99.90;;;;;;5093828;28;20679;-74
2022/05/03 02:52:48;;;;;;;14.18;12.98;;;10.80;99.90;;;;;;5094120;28;20197;-74
2022/05/03 02:55:31;;;;;;;14.85;13.38;;;10.70;99.90;;;;;;5094230;28;20657;-74
2022/05/03 02:58:10;;;;;;;15.98;14.43;;;10.70;99.90;;;;;;5094085;28;20635;-74
2022/05/03 03:03:42;;;;;;;14.85;12.20;;;10.60;99.90;;;;;;5093928;28;20194;-74
2022/05/03 03:06:21;;;;;;;15.25;13.85;;;10.60;99.90;;;;;;5074869;28;20235;-74
2022/05/03 03:08:51;;;;;;;15.07;13.27;;;10.60;99.90;;;;;;5093153;28;20276;-74
2022/05/03 03:11:30;;;;;;;14.68;13.15;;;10.60;99.90;;;;;;5093993;28;20203;-74
2022/05/03 03:14:39;;;;;;;14.77;13.38;;;10.50;99.90;;;;;;5093264;28;20203;-74
2022/05/03 03:17:10;;;;;;;15.93;14.52;;;10.40;99.90;;;;;;5093801;28;20187;-74
2022/05/03 03:19:55;;;;;;;17.70;14.00;;;10.40;99.90;;;;;;5075228;28;20213;-74
2022/05/03 03:22:28;;;;;;;15.48;14.23;;;10.40;99.90;;;;;;5093833;28;20191;-74
2022/05/03 03:24:56;;;;;;;15.50;14.10;;;10.30;99.90;;;;;;5093778;28;20210;-74
2022/05/03 03:27:24;;;;;;;15.30;13.90;;;10.30;99.90;;;;;;5093708;28;20549;-74
2022/05/03 03:29:55;;;;;;;15.40;14.00;;;10.30;99.90;;;;;;5093599;28;20278;-74
2022/05/03 03:32:26;;;;;;;14.90;13.60;;;10.30;99.90;;;;;;5093614;28;20183;-74
2022/05/03 03:34:58;;;;;;;16.60;14.63;;;10.40;99.90;;;;;;5092911;28;20203;-74
2022/05/03 03:37:27;;;;;;;14.27;12.98;;;10.40;99.90;;;;;;5093010;28;20213;-74
2022/05/03 03:39:54;;;;;;;16.55;15.00;;;10.40;99.90;;;;;;5093445;28;20584;-74
2022/05/03 03:42:21;;;;;;;24.38;12.90;;;10.40;99.90;;;;;;5093447;28;20204;-74
2022/05/03 03:44:48;;;;;;;16.98;14.32;;;10.30;99.90;;;;;;5092987;28;20698;-74
2022/05/03 03:47:15;;;;;;;14.93;13.38;;;10.30;99.90;;;;;;5092956;28;20199;-74
2022/05/03 03:49:43;;;;;;;15.98;14.68;;;10.30;99.90;;;;;;5092640;28;20232;-74
2022/05/03 03:52:10;;;;;;;17.85;13.25;;;10.10;99.90;;;;;;5092692;28;20199;-74
2022/05/03 03:54:40;;;;;;;15.38;13.98;;;10.10;99.90;;;;;;5092619;28;20508;-74
2022/05/03 03:57:07;;;;;;;15.73;14.23;;;10.20;99.90;;;;;;5091753;28;20259;-74
2022/05/03 03:59:35;;;;;;;16.10;13.80;;;10.20;99.90;;;;;;5092817;28;20207;-74
2022/05/03 04:02:03;;;;;;;14.73;13.43;;;10.40;99.90;;;;;;5092951;28;20207;-74
2022/05/03 04:04:31;;;;;;;13.95;12.48;;;10.40;99.90;;;;;;5092639;28;20716;-74
2022/05/03 04:06:59;;;;;;;16.05;14.50;;;10.50;99.90;;;;;;5092421;28;20231;-74
2022/05/03 04:09:27;;;;;;;14.20;12.63;;;10.50;99.90;;;;;;5092431;28;20205;-74
2022/05/03 04:11:53;;;;;;;13.93;12.48;;;10.60;99.90;;;;;;5092434;28;20213;-74
2022/05/03 04:14:20;;;;;;;14.70;13.20;;;10.60;99.90;;;;;;5092954;28;20211;-74
2022/05/03 04:16:47;;;;;;;24.75;18.75;;;10.50;99.90;;;;;;5092544;28;20678;-74
2022/05/03 04:19:14;;;;;;;20.02;14.50;;;10.60;99.90;;;;;;5092916;28;20203;-77
2022/05/03 04:21:40;;;;;;;16.95;15.23;;;10.70;99.90;;;;;;5074578;28;20543;-74
2022/05/03 04:24:07;;;;;;;15.00;13.70;;;10.80;99.90;;;;;;5073805;28;20215;-74
2022/05/03 04:26:34;;;;;;;13.98;12.60;;;10.90;99.90;;;;;;5092641;28;20663;-74
2022/05/03 04:29:03;;;;;;;17.70;15.10;;;11.00;99.90;;;;;;5092755;28;20681;-74
2022/05/03 04:31:32;;;;;;;14.63;13.23;;;11.20;99.90;;;;;;5092643;28;20203;-74
2022/05/03 04:34:01;;;;;;;15.25;13.73;;;11.30;99.90;;;;;;5091840;28;20203;-74
2022/05/03 04:36:29;;;;;;;14.90;13.38;;;11.50;99.90;;;;;;5091731;28;20202;-74
2022/05/03 04:38:56;;;;;;;15.73;14.07;;;11.70;99.90;;;;;;5074151;28;20206;-74
2022/05/03 04:41:23;;;;;;;14.98;13.38;;;11.90;99.90;;;;;;5092050;28;20199;-74
2022/05/03 04:43:50;;;;;;;14.77;13.15;;;12.00;99.90;;;;;;5093720;28;20202;-74
2022/05/03 04:46:17;;;;;;;15.48;13.98;;;12.10;99.90;;;;;;5096414;28;20214;-74
2022/05/03 04:48:44;;;;;;;14.85;13.45;;;12.10;99.90;;;;;;5096434;28;20195;-74
2022/05/03 04:51:25;;;;;;;15.35;13.95;;;12.30;99.90;;;;;;5096746;28;20204;-74
2022/05/03 04:53:52;;;;;;;14.52;13.13;;;12.30;99.90;;;;;;5096331;28;20190;-74
2022/05/03 04:56:20;;;;;;;15.32;13.88;;;12.40;99.90;;;;;;5096495;28;20199;-74
2022/05/03 04:58:48;;;;;;;14.40;12.87;;;12.40;99.90;;;;;;5096405;28;20203;-74
2022/05/03 05:01:15;;;;;;;14.95;13.63;;;12.40;99.90;;;;;;5096147;28;20612;-74
2022/05/03 05:03:43;;;;;;;14.13;12.83;;;12.40;99.90;;;;;;5095521;28;20280;-74
2022/05/03 05:06:10;;;;;;;15.40;13.80;;;12.40;99.90;;;;;;5095684;28;20644;-74
2022/05/03 05:08:41;;;;;;;13.57;12.23;;;12.40;99.90;;;;;;5095894;28;20202;-74
2022/05/03 05:11:09;;;;;;;19.73;14.50;;;12.40;99.90;;;;;;5096135;28;20635;-74
2022/05/03 05:13:37;;;;;;;14.27;12.77;;;12.50;99.90;;;;;;5077986;28;20610;-74
2022/05/03 05:16:05;;;;;;;18.53;14.57;;;12.50;99.90;;;;;;5096283;28;20617;-74
2022/05/03 05:18:32;;;;;;;17.10;13.23;;;12.50;99.90;;;;;;5096217;28;20586;-74
2022/05/03 05:20:59;;;;;;;15.07;13.48;;;12.50;99.90;;;;;;5095699;28;20644;-74
2022/05/03 05:23:26;;;;;;;16.00;13.23;;;12.50;99.90;;;;;;5096418;28;20203;-74
2022/05/03 05:25:53;;;;;;;13.63;12.37;;;12.60;99.90;;;;;;5095535;28;20667;-74
2022/05/03 05:28:21;;;;;;;15.77;12.63;;;12.70;99.90;;;;;;5095297;28;20588;-74
2022/05/03 05:30:51;;;;;;;17.17;13.10;;;12.80;99.90;;;;;;5095913;28;20602;-74
2022/05/03 05:33:18;;;;;;;14.27;12.10;;;12.80;99.90;;;;;;5090934;28;20629;-74
2022/05/03 05:35:44;;;;;;;14.13;12.70;;;12.90;99.90;;;;;;5095585;28;20972;-74
2022/05/03 05:38:14;;;;;;;14.88;13.35;;;13.00;99.90;;;;;;5095568;28;20766;-78
2022/05/03 05:40:41;;;;;;;16.63;14.93;;;13.00;99.90;;;;;;5078234;28;20199;-75
2022/05/03 05:43:07;;;;;;;14.67;12.73;;;13.10;99.90;;;;;;5096083;28;20579;-76
2022/05/03 05:45:33;;;;;;;19.07;12.70;;;13.10;99.90;;;;;;5095084;28;20652;-77
2022/05/03 05:48:00;;;;;;;13.50;12.03;;;13.10;99.90;;;;;;5096786;28;20609;-77
2022/05/03 05:50:27;;;;;;;16.23;13.50;;;13.20;99.90;;;;;;5078580;28;20616;-77
2022/05/03 05:55:38;;;;;;;14.23;12.67;;;13.40;99.90;;;;;;5096420;28;20573;-78
2022/05/03 05:58:04;;;;;;;13.60;12.20;;;13.40;99.90;;;;;;5095148;28;20591;-73
2022/05/03 06:00:32;;;;;;;14.53;13.03;;;13.50;99.90;;;;;;5094971;28;21168;-73
2022/05/03 06:02:59;;;;;;;16.10;12.80;;;13.60;99.90;;;;;;5076446;28;21144;-73
2022/05/03 06:05:25;;;;;;;14.03;12.73;;;13.70;99.90;;;;;;5094657;28;20660;-73
2022/05/03 06:07:53;;;;;;;12.60;11.53;;;13.80;99.90;;;;;;5093960;28;20628;-74
2022/05/03 06:10:20;;;;;;;12.90;11.70;;;13.90;99.90;;;;;;5094231;28;20621;-74
2022/05/03 06:12:47;;;;;;;20.70;13.13;;;14.00;99.90;;;;;;5095076;28;20658;-73
2022/05/03 06:15:14;;;;;;;12.23;11.17;;;14.20;99.90;;;;;;5094331;28;20682;-74
2022/05/03 06:17:41;;;;;;;16.37;14.80;;;14.40;99.90;;;;;;5094658;28;20605;-74
2022/05/03 06:20:09;;;;;;;12.83;11.67;;;14.40;99.90;;;;;;5094461;28;20601;-74
2022/05/03 06:22:35;;;;;;;12.43;11.20;;;14.40;99.90;;;;;;5094608;28;20609;-74
2022/05/03 06:25:03;;;;;;;14.60;12.53;;;14.50;99.90;;;;;;5094457;28;20695;-73
2022/05/03 06:27:29;;;;;;;14.90;12.13;;;14.40;99.90;;;;;;5094346;28;20618;-73
2022/05/03 06:29:55;;;;;;;11.80;10.80;;;14.40;99.90;;;;;;5094547;28;20605;-72
2022/05/03 06:32:22;;;;;;;15.93;14.23;;;14.40;99.90;;;;;;5076292;28;20621;-73
2022/05/03 06:34:48;;;;;;;15.57;11.50;;;14.60;99.90;;;;;;5093558;28;21184;-72
2022/05/03 06:37:18;;;;;;;12.63;11.43;;;14.60;99.90;;;;;;5093978;28;20981;-73
2022/05/03 06:39:44;;;;;;;13.20;11.90;;;14.90;99.90;;;;;;5094031;28;20605;-73
2022/05/03 06:42:11;;;;;;;15.50;11.70;;;15.10;99.90;;;;;;5075520;28;21149;-73
2022/05/03 06:44:38;;;;;;;13.87;11.43;;;15.30;99.90;;;;;;5094038;28;20653;-72
2022/05/03 06:47:05;;;;;;;11.80;10.53;;;15.30;99.90;;;;;;5094148;28;20622;-73
2022/05/03 06:49:31;;;;;;;12.67;11.50;;;15.50;99.90;;;;;;5093162;28;21198;-72
2022/05/03 06:51:58;;;;;;;11.13;10.23;;;15.30;99.90;;;;;;5093732;28;20991;-73
2022/05/03 06:54:24;;;;;;;11.77;10.30;;;15.40;99.90;;;;;;5094108;28;20617;-73
2022/05/03 06:56:51;;;;;;;12.10;11.00;;;15.50;99.90;;;;;;5076019;28;20613;-73
2022/05/03 06:59:18;;;;;;;12.83;11.60;;;15.50;99.90;;;;;;5093492;28;20991;-73
2022/05/03 07:01:44;;;;;;;11.83;10.63;;;15.40;99.90;;;;;;5093598;28;20597;-73
2022/05/03 07:04:11;;;;;;;12.23;11.03;;;15.60;99.90;;;;;;5094127;28;20639;-73
2022/05/03 07:06:37;;;;;;;13.13;9.77;;;15.90;99.90;;;;;;5092835;28;20675;-74
2022/05/03 07:09:04;;;;;;;11.63;10.53;;;15.80;99.90;;;;;;5093377;28;21164;-74
2022/05/03 07:11:31;;;;;;;11.87;10.77;;;15.90;99.90;;;;;;5093718;28;20969;-73
2022/05/03 07:13:58;;;;;;;12.03;10.77;;;16.10;99.90;;;;;;5092949;28;20624;-73
2022/05/03 07:16:24;;;;;;;11.33;10.13;;;16.20;99.90;;;;;;5093391;28;20617;-73
2022/05/03 07:24:21;;;;;;;11.63;10.30;;;16.50;99.90;;;;;;5078371;28;20578;-73
2022/05/03 07:26:48;;;;;;;12.97;11.50;;;16.60;99.90;;;;;;5094093;28;20610;-72
2022/05/03 07:29:15;;;;;;;14.00;9.73;;;16.40;99.90;;;;;;5075821;28;20621;-73
2022/05/03 07:31:43;;;;;;;11.83;10.73;;;16.50;99.90;;;;;;5093072;28;20612;-73
2022/05/03 07:34:09;;;;;;;10.73;9.80;;;16.90;99.90;;;;;;5093233;28;20685;-73
2022/05/03 07:36:36;;;;;;;11.20;10.00;;;17.20;99.90;;;;;;5093285;28;20609;-74
2022/05/03 07:39:03;;;;;;;16.03;10.03;;;17.20;99.90;;;;;;5093139;28;21210;-74
2022/05/03 07:41:29;;;;;;;10.53;9.63;;;17.20;99.90;;;;;;5075235;28;20617;-74
2022/05/03 07:43:56;;;;;;;14.37;10.70;;;17.50;99.90;;;;;;5093206;28;20624;-74
2022/05/03 07:46:22;;;;;;;10.97;9.90;;;17.80;99.90;;;;;;5092056;28;20667;-74
2022/05/03 07:48:49;;;;;;;11.00;9.90;;;17.50;99.90;;;;;;5092711;28;20613;-73
2022/05/03 07:51:17;;;;;;;10.67;9.73;;;17.40;99.90;;;;;;5093001;28;20627;-72
2022/05/03 07:53:43;;;;;;;11.50;10.40;;;17.10;99.90;;;;;;5092536;28;20631;-72
2022/05/03 07:56:10;;;;;;;11.70;10.67;;;17.20;99.90;;;;;;5092734;28;20632;-73
2022/05/03 07:58:37;;;;;;;15.07;11.53;;;17.40;99.90;;;;;;5092548;28;20625;-73
2022/05/03 08:01:05;;;;;;;11.10;10.10;;;17.40;99.90;;;;;;5092626;28;20598;-73
2022/05/03 08:03:31;;;;;;;11.33;10.27;;;17.50;99.90;;;;;;5092217;28;20788;-73
2022/05/03 08:06:02;;;;;;;11.70;10.80;;;17.30;99.90;;;;;;5091803;28;20681;-72
2022/05/03 08:08:29;;;;;;;17.97;12.20;;;16.70;99.90;;;;;;5092364;28;20610;-73
2022/05/03 08:10:56;;;;;;;14.73;11.50;;;16.70;99.90;;;;;;5092758;28;21190;-72
2022/05/03 08:13:22;;;;;;;11.23;10.20;;;17.00;99.90;;;;;;5092608;28;20663;-72
2022/05/03 08:15:49;;;;;;;13.63;12.33;;;17.40;99.90;;;;;;5092640;28;20625;-71
2022/05/03 08:18:15;;;;;;;11.13;10.23;;;17.50;99.90;;;;;;5093004;28;20616;-71
2022/05/03 08:20:42;;;;;;;10.90;10.10;;;17.90;99.90;;;;;;5096892;28;20628;-72
2022/05/03 08:23:08;;;;;;;11.17;10.17;;;18.30;99.90;;;;;;5096758;28;20961;-72
2022/05/03 08:25:37;;;;;;;11.00;9.97;;;18.20;99.90;;;;;;5096762;28;20664;-72
2022/05/03 08:28:05;;;;;;;10.47;9.67;;;18.20;99.90;;;;;;5096724;28;21022;-72
2022/05/03 08:30:31;;;;;;;11.77;10.67;;;18.60;99.90;;;;;;5096493;28;20609;-73
2022/05/03 08:32:58;;;;;;;10.00;9.17;;;18.50;99.90;;;;;;5077999;28;21183;-72
2022/05/03 08:35:25;;;;;;;11.00;9.00;;;18.60;99.90;;;;;;5096153;28;20628;-72
2022/05/03 08:43:24;;;;;;;10.20;9.20;;;19.20;99.90;;;;;;5096607;28;20701;-72
2022/05/03 08:45:51;;;;;;;9.50;8.70;;;19.20;99.90;;;;;;5096375;28;20667;-72
2022/05/03 08:48:22;;;;;;;9.90;8.90;;;19.50;99.90;;;;;;5061580;28;20623;-72
2022/05/03 08:50:48;;;;;;;8.70;8.10;;;19.70;99.90;;;;;;5095466;28;21037;-72
2022/05/03 08:53:18;;;;;;;8.53;7.70;;;19.30;99.90;;;;;;5095871;28;20613;-72
2022/05/03 08:55:45;;;;;;;7.53;6.83;;;19.30;99.90;;;;;;5096164;28;20974;-72
2022/05/03 08:58:17;;;;;;;8.67;8.03;;;19.80;99.90;;;;;;5095792;28;20617;-72
2022/05/03 09:00:44;;;;;;;9.53;8.63;;;20.00;99.90;;;;;;5096265;28;20593;-72
2022/05/03 09:03:12;;;;;;;9.97;9.17;;;19.90;99.90;;;;;;5095897;28;20982;-72
2022/05/03 09:05:39;;;;;;;9.00;8.30;;;20.20;99.90;;;;;;5095850;28;20671;-72
2022/05/03 09:08:09;;;;;;;8.40;7.80;;;19.70;99.90;;;;;;5095530;28;20613;-72
2022/05/03 09:10:37;;;;;;;8.63;7.90;;;19.30;99.90;;;;;;5095996;28;20591;-73
2022/05/03 09:13:25;;;;;;;10.53;9.30;;;19.40;99.90;;;;;;5095385;28;21141;-72
2022/05/03 09:15:56;;;;;;;9.60;8.80;;;19.30;99.90;;;;;;5095718;28;20634;-73
2022/05/03 09:18:26;;;;;;;10.60;9.73;;;19.50;99.90;;;;;;5095705;28;21120;-72
2022/05/03 09:23:51;;;;;;;9.30;8.40;;;19.50;99.90;;;;;;5095436;28;21150;-73
2022/05/03 09:26:30;;;;;;;10.43;9.10;;;19.40;99.90;;;;;;5095666;28;20632;-73
2022/05/03 09:29:08;;;;;;;9.43;8.40;;;19.40;99.90;;;;;;5094903;28;20569;-73
2022/05/03 09:31:41;;;;;;;9.43;8.73;;;19.50;99.90;;;;;;5095479;28;20589;-72
2022/05/03 09:34:19;;;;;;;8.67;7.97;;;19.60;99.90;;;;;;5095338;28;21201;-72
2022/05/03 09:36:47;;;;;;;9.63;8.83;;;19.80;99.90;;;;;;5095083;28;20617;-71
2022/05/03 09:39:27;;;;;;;10.50;8.33;;;19.80;99.90;;;;;;5094753;28;21128;-71
2022/05/03 09:42:13;;;;;;;9.20;8.50;;;19.70;99.90;;;;;;5095105;28;20581;-72
2022/05/03 09:44:55;;;;;;;9.00;8.30;;;20.20;99.90;;;;;;5095174;28;20658;-72
2022/05/03 09:47:24;;;;;;;8.70;8.10;;;20.30;99.90;;;;;;5095287;28;20669;-72
2022/05/03 09:49:51;;;;;;;8.63;7.83;;;20.60;99.90;;;;;;5076666;28;20609;-72
2022/05/03 09:52:29;;;;;;;9.67;8.60;;;20.60;99.90;;;;;;5095266;28;20623;-72
2022/05/03 09:55:04;;;;;;;10.23;9.30;;;19.70;99.90;;;;;;5076818;28;20629;-72
2022/05/03 09:57:35;;;;;;;10.30;9.13;;;20.20;99.90;;;;;;5095299;28;20647;-73
2022/05/03 10:00:04;;;;;;;61.63;55.57;;;20.70;99.90;;;;;;5095256;28;20584;-73
2022/05/03 10:02:32;;;;;;;10.30;9.50;;;21.00;99.90;;;;;;5094762;28;20613;-73
2022/05/03 10:04:59;;;;;;;10.70;9.80;;;20.40;99.90;;;;;;5094701;28;20612;-73
2022/05/03 10:07:26;;;;;;;10.20;9.23;;;20.80;99.90;;;;;;5094727;28;21000;-73
2022/05/03 10:09:53;;;;;;;9.37;8.57;;;21.10;99.90;;;;;;5095223;28;20623;-73
2022/05/03 10:12:20;;;;;;;9.60;8.80;;;21.40;99.90;;;;;;5094735;28;20616;-73
2022/05/03 10:14:48;;;;;;;8.37;7.67;;;21.80;99.90;;;;;;5094623;28;20616;-74
2022/05/03 10:20:40;;;;;;;9.47;8.13;;;21.60;99.90;;;;;;5094389;28;20578;-74
2022/05/03 10:23:34;;;;;;;8.60;7.67;;;21.90;99.90;;;;;;5094384;28;20632;-73
2022/05/03 10:26:06;;;;;;;8.70;7.20;;;21.00;99.90;;;;;;5094053;28;20669;-73
2022/05/03 10:29:01;;;;;;;8.43;7.70;;;20.60;99.90;;;;;;5094240;28;20585;-73
2022/05/03 10:31:27;;;;;;;8.77;8.07;;;20.80;99.90;;;;;;5094035;28;20620;-73
2022/05/03 10:33:55;;;;;;;9.17;8.47;;;21.10;99.90;;;;;;5094020;28;20712;-73
2022/05/03 10:36:30;;;;;;;7.93;7.33;;;21.30;99.90;;;;;;5094156;28;20613;-73
2022/05/03 10:39:22;;;;;;;8.10;7.40;;;21.10;99.90;;;;;;5094398;28;20633;-73
2022/05/03 10:42:12;;;;;;;7.93;7.43;;;21.40;99.90;;;;;;5093570;28;20944;-73
2022/05/03 10:44:43;;;;;;;8.17;7.60;;;21.80;99.90;;;;;;5094286;28;20589;-73
2022/05/03 10:47:13;;;;;;;8.47;7.83;;;21.70;99.90;;;;;;5093845;28;20625;-73
2022/05/03 10:50:17;;;;;;;6.73;6.23;;;21.60;99.90;;;;;;5093921;28;20643;-73
2022/05/03 10:52:56;;;;;;;9.63;6.90;;;21.50;99.90;;;;;;5078662;28;21225;-73
2022/05/03 10:55:24;;;;;;;9.40;8.60;;;21.60;99.90;;;;;;5094093;28;20627;-72
2022/05/03 10:58:25;;;;;;;9.07;8.43;;;21.10;99.90;;;;;;5094039;28;20597;-73
2022/05/03 11:01:14;;;;;;;9.00;8.30;;;21.50;99.90;;;;;;5093749;28;20614;-72
2022/05/03 11:04:01;;;;;;;11.07;8.17;;;21.90;99.90;;;;;;5075212;28;20678;-73
2022/05/03 11:06:28;;;;;;;9.77;8.73;;;22.40;99.90;;;;;;5093044;28;20676;-73
2022/05/03 11:08:57;;;;;;;8.00;7.40;;;22.20;99.90;;;;;;5075099;28;21190;-73
2022/05/03 11:11:37;;;;;;;8.00;7.50;;;22.30;99.90;;;;;;5092750;28;20677;-73
2022/05/03 11:14:11;;;;;;;8.10;7.53;;;22.60;99.90;;;;;;5093750;28;20609;-73
2022/05/03 11:16:37;;;;;;;8.43;7.70;;;22.70;99.90;;;;;;5093378;28;20668;-73
2022/05/03 11:19:15;;;;;;;11.33;10.23;;;22.70;99.90;;;;;;5093404;28;20674;-73
2022/05/03 11:21:43;;;;;;;8.87;8.00;;;22.80;99.90;;;;;;5093608;28;20621;-73
2022/05/03 11:24:26;;;;;;;9.57;8.70;;;22.80;99.90;;;;;;5093608;28;20609;-73
2022/05/03 11:26:58;;;;;;;8.60;7.90;;;23.20;99.90;;;;;;5093499;28;20629;-73
2022/05/03 11:29:31;;;;;;;12.60;9.17;;;23.80;99.90;;;;;;5093299;28;20601;-73
2022/05/03 11:32:01;;;;;;;10.07;9.07;;;23.70;99.90;;;;;;5093130;28;20618;-73
2022/05/03 11:34:28;;;;;;;10.50;9.57;;;24.40;99.90;;;;;;5093081;28;20616;-73
2022/05/03 11:36:55;;;;;;;9.67;8.80;;;25.10;99.90;;;;;;5093050;28;20976;-73
2022/05/03 11:39:22;;;;;;;10.57;9.57;;;25.30;99.90;;;;;;5093196;28;21178;-72
2022/05/03 11:41:49;;;;;;;9.27;8.57;;;25.20;99.90;;;;;;5092841;28;20648;-71
2022/05/03 11:44:16;;;;;;;9.23;8.63;;;25.50;99.90;;;;;;5092695;28;20624;-71
2022/05/03 11:46:45;;;;;;;10.43;9.53;;;25.40;99.90;;;;;;5092712;28;20663;-71
2022/05/03 11:49:13;;;;;;;10.33;9.43;;;24.70;99.90;;;;;;5092766;28;21223;-71
2022/05/03 11:57:41;;;;;;;11.93;9.67;;;25.90;99.90;;;;;;5092889;28;20574;-71
2022/05/03 12:00:15;;;;;;;9.43;8.83;;;26.40;99.90;;;;;;5092895;28;20909;-71
2022/05/03 12:02:44;;;;;;;9.23;8.53;;;25.90;99.90;;;;;;5092635;28;20577;-71
2022/05/03 12:05:19;;;;;;;10.40;9.40;;;25.70;99.90;;;;;;5092936;28;20636;-71
2022/05/03 12:07:51;;;;;;;10.00;9.30;;;25.00;99.90;;;;;;5091853;28;20671;-71
2022/05/03 12:10:23;;;;;;;10.83;10.03;;;23.80;99.90;;;;;;5093028;28;20574;-73
2022/05/03 12:13:09;;;;;;;10.70;9.50;;;23.50;99.90;;;;;;5093151;28;20588;-71
2022/05/03 12:15:57;;;;;;;10.13;9.40;;;23.90;99.90;;;;;;5092532;28;20569;-72
2022/05/03 12:18:33;;;;;;;9.80;9.00;;;24.80;99.90;;;;;;5057716;28;20633;-72
2022/05/03 12:21:01;;;;;;;10.40;9.70;;;25.00;99.90;;;;;;5092386;28;20617;-73
2022/05/03 12:23:34;;;;;;;8.83;8.23;;;25.20;99.90;;;;;;5092278;28;20609;-72
2022/05/03 12:26:13;;;;;;;8.23;7.60;;;25.90;99.90;;;;;;5092414;28;20653;-73
2022/05/03 12:28:41;;;;;;;9.47;7.93;;;25.40;99.90;;;;;;5092951;28;20581;-72
2022/05/03 12:31:10;;;;;;;7.83;7.20;;;24.90;99.90;;;;;;5092373;28;20613;-73
2022/05/03 12:33:41;;;;;;;7.93;7.43;;;25.40;99.90;;;;;;5092703;28;20980;-73
2022/05/03 12:36:08;;;;;;;7.27;6.73;;;25.60;99.90;;;;;;5092122;28;21250;-73
2022/05/03 12:38:47;;;;;;;9.00;7.70;;;25.80;99.90;;;;;;5092398;28;20628;-73
2022/05/03 12:41:30;;;;;;;9.23;7.40;;;26.60;99.90;;;;;;5092814;28;20581;-73
2022/05/03 12:44:14;;;;;;;8.17;6.53;;;27.30;99.90;;;;;;5092500;28;20596;-73
2022/05/03 12:46:42;;;;;;;7.10;6.20;;;26.70;99.90;;;;;;5074341;28;21069;-73
2022/05/03 12:49:13;;;;;;;7.23;6.50;;;26.40;99.90;;;;;;5092131;28;20964;-73
2022/05/03 12:51:45;;;;;;;7.37;6.73;;;27.20;99.90;;;;;;5092453;28;20933;-73
2022/05/03 12:54:13;;;;;;;6.77;6.03;;;27.90;99.90;;;;;;5092490;28;20576;-73
2022/05/03 12:59:26;;;;;;;7.13;6.60;;;27.00;99.90;;;;;;5092241;28;20588;-73
2022/05/03 13:01:55;;;;;;;6.47;6.00;;;25.70;99.90;;;;;;5092238;28;20624;-73
2022/05/03 13:04:22;;;;;;;7.33;5.77;;;25.60;99.90;;;;;;5092724;28;20617;-73
2022/05/03 13:06:50;;;;;;;6.53;6.13;;;24.60;99.90;;;;;;5095685;28;20676;-73
2022/05/03 13:09:16;;;;;;;6.60;6.00;;;24.90;99.90;;;;;;5077888;28;21033;-73
2022/05/03 13:11:44;;;;;;;7.03;5.57;;;26.20;99.90;;;;;;5095731;28;20643;-73
2022/05/03 13:14:11;;;;;;;6.33;5.93;;;27.50;99.90;;;;;;5095105;28;20703;-73
2022/05/03 13:16:38;;;;;;;5.83;5.50;;;28.40;99.90;;;;;;5095797;28;20622;-73
2022/05/03 13:19:05;;;;;;;28.87;7.43;;;28.60;99.90;;;;;;5078055;28;20621;-73
2022/05/03 13:21:35;;;;;;;5.90;5.60;;;29.20;99.90;;;;;;5096406;28;20937;-73
2022/05/03 13:24:06;;;;;;;6.00;5.50;;;28.90;99.90;;;;;;5095794;28;20614;-73
2022/05/03 13:26:34;;;;;;;7.43;6.93;;;28.50;99.90;;;;;;5095599;28;20613;-73
2022/05/03 13:29:03;;;;;;;7.47;7.07;;;27.80;99.90;;;;;;5095788;28;20612;-73
2022/05/03 13:31:29;;;;;;;6.10;5.80;;;27.90;99.90;;;;;;5077868;28;20703;-73
2022/05/03 13:33:56;;;;;;;8.40;6.90;;;28.00;99.90;;;;;;5095695;28;21008;-73